sensor_id;sensor_type;location;lat;lon;timestamp;P1;durP1;ratioP1;P2;durP2;ratioP2
20245;SDS011;10281;54.406;18.556;2023-06-10T00:00:07;9.43;;;2.87;;
20245;SDS011;10281;54.406;18.556;2023-06-10T00:02:36;7.37;;;2.63;;
20245;SDS011;10281;54.406;18.556;2023-06-10T00:05:03;5.17;;;3.00;;
20245;SDS011;10281;54.406;18.556;2023-06-10T00:07:30;8.27;;;2.80;;
20245;SDS011;10281;54.406;18.556;2023-06-10T00:09:56;6.53;;;3.37;;
20245;SDS011;10281;54.406;18.556;2023-06-10T00:12:23;10.17;;;3.13;;
20245;SDS011;10281;54.406;18.556;2023-06-10T00:14:50;5.03;;;2.70;;
20245;SDS011;10281;54.406;18.556;2023-06-10T00:17:19;7.17;;;2.83;;
20245;SDS011;10281;54.406;18.556;2023-06-10T00:19:45;7.00;;;2.93;;
20245;SDS011;10281;54.406;18.556;2023-06-10T00:22:12;6.97;;;3.00;;
20245;SDS011;10281;54.406;18.556;2023-06-10T00:24:39;7.33;;;3.23;;
20245;SDS011;10281;54.406;18.556;2023-06-10T00:27:07;6.20;;;2.90;;
20245;SDS011;10281;54.406;18.556;2023-06-10T00:29:34;8.17;;;3.23;;
20245;SDS011;10281;54.406;18.556;2023-06-10T00:32:00;6.20;;;2.70;;
20245;SDS011;10281;54.406;18.556;2023-06-10T00:34:27;6.37;;;2.73;;
20245;SDS011;10281;54.406;18.556;2023-06-10T00:36:53;6.07;;;3.20;;
20245;SDS011;10281;54.406;18.556;2023-06-10T00:39:20;8.80;;;3.27;;
20245;SDS011;10281;54.406;18.556;2023-06-10T00:41:47;7.30;;;3.10;;
20245;SDS011;10281;54.406;18.556;2023-06-10T00:44:13;6.83;;;2.90;;
20245;SDS011;10281;54.406;18.556;2023-06-10T00:46:40;9.07;;;3.13;;
20245;SDS011;10281;54.406;18.556;2023-06-10T00:49:07;8.53;;;2.80;;
20245;SDS011;10281;54.406;18.556;2023-06-10T00:51:34;7.37;;;3.37;;
20245;SDS011;10281;54.406;18.556;2023-06-10T00:54:02;6.30;;;2.50;;
20245;SDS011;10281;54.406;18.556;2023-06-10T00:56:29;9.50;;;3.53;;
20245;SDS011;10281;54.406;18.556;2023-06-10T00:58:57;8.50;;;3.33;;
20245;SDS011;10281;54.406;18.556;2023-06-10T01:01:24;8.77;;;2.70;;
20245;SDS011;10281;54.406;18.556;2023-06-10T01:03:51;3.80;;;2.60;;
20245;SDS011;10281;54.406;18.556;2023-06-10T01:06:23;9.67;;;2.90;;
20245;SDS011;10281;54.406;18.556;2023-06-10T01:08:55;8.20;;;2.63;;
20245;SDS011;10281;54.406;18.556;2023-06-10T01:11:28;9.03;;;3.03;;
20245;SDS011;10281;54.406;18.556;2023-06-10T01:13:57;8.37;;;3.00;;
20245;SDS011;10281;54.406;18.556;2023-06-10T01:16:25;8.50;;;2.63;;
20245;SDS011;10281;54.406;18.556;2023-06-10T01:18:53;7.50;;;2.50;;
20245;SDS011;10281;54.406;18.556;2023-06-10T01:21:22;6.20;;;2.40;;
20245;SDS011;10281;54.406;18.556;2023-06-10T01:23:51;7.10;;;2.50;;
20245;SDS011;10281;54.406;18.556;2023-06-10T01:26:19;9.30;;;2.70;;
20245;SDS011;10281;54.406;18.556;2023-06-10T01:28:54;12.17;;;2.70;;
20245;SDS011;10281;54.406;18.556;2023-06-10T01:31:56;4.90;;;2.53;;
20245;SDS011;10281;54.406;18.556;2023-06-10T01:34:12;8.47;;;2.87;;
20245;SDS011;10281;54.406;18.556;2023-06-10T01:36:40;7.07;;;2.60;;
20245;SDS011;10281;54.406;18.556;2023-06-10T01:39:09;6.63;;;2.50;;
20245;SDS011;10281;54.406;18.556;2023-06-10T01:41:37;4.80;;;2.40;;
20245;SDS011;10281;54.406;18.556;2023-06-10T01:44:06;4.20;;;2.40;;
20245;SDS011;10281;54.406;18.556;2023-06-10T01:46:32;10.40;;;2.70;;
20245;SDS011;10281;54.406;18.556;2023-06-10T01:48:59;6.40;;;2.40;;
20245;SDS011;10281;54.406;18.556;2023-06-10T01:51:26;11.20;;;2.80;;
20245;SDS011;10281;54.406;18.556;2023-06-10T01:53:52;6.53;;;2.40;;
20245;SDS011;10281;54.406;18.556;2023-06-10T01:56:19;5.43;;;2.70;;
20245;SDS011;10281;54.406;18.556;2023-06-10T01:58:46;6.43;;;2.63;;
20245;SDS011;10281;54.406;18.556;2023-06-10T02:01:13;5.10;;;2.20;;
20245;SDS011;10281;54.406;18.556;2023-06-10T02:03:40;7.27;;;2.33;;
20245;SDS011;10281;54.406;18.556;2023-06-10T02:06:06;6.03;;;2.57;;
20245;SDS011;10281;54.406;18.556;2023-06-10T02:08:33;4.90;;;1.90;;
20245;SDS011;10281;54.406;18.556;2023-06-10T02:11:00;6.60;;;2.33;;
20245;SDS011;10281;54.406;18.556;2023-06-10T02:13:26;5.23;;;2.20;;
20245;SDS011;10281;54.406;18.556;2023-06-10T02:15:53;5.67;;;2.50;;
20245;SDS011;10281;54.406;18.556;2023-06-10T02:18:20;5.53;;;2.50;;
20245;SDS011;10281;54.406;18.556;2023-06-10T02:20:47;7.43;;;2.13;;
20245;SDS011;10281;54.406;18.556;2023-06-10T02:23:14;6.23;;;2.20;;
20245;SDS011;10281;54.406;18.556;2023-06-10T02:25:41;5.40;;;2.63;;
20245;SDS011;10281;54.406;18.556;2023-06-10T02:28:07;7.53;;;2.53;;
20245;SDS011;10281;54.406;18.556;2023-06-10T02:30:34;7.43;;;2.00;;
20245;SDS011;10281;54.406;18.556;2023-06-10T02:33:01;6.87;;;2.10;;
20245;SDS011;10281;54.406;18.556;2023-06-10T02:35:27;4.57;;;2.07;;
20245;SDS011;10281;54.406;18.556;2023-06-10T02:37:54;4.47;;;1.73;;
20245;SDS011;10281;54.406;18.556;2023-06-10T02:40:20;7.60;;;2.17;;
20245;SDS011;10281;54.406;18.556;2023-06-10T02:42:47;7.47;;;2.13;;
20245;SDS011;10281;54.406;18.556;2023-06-10T02:45:14;10.43;;;2.47;;
20245;SDS011;10281;54.406;18.556;2023-06-10T02:47:41;5.37;;;2.37;;
20245;SDS011;10281;54.406;18.556;2023-06-10T02:50:08;11.27;;;1.93;;
20245;SDS011;10281;54.406;18.556;2023-06-10T02:52:35;4.53;;;1.90;;
20245;SDS011;10281;54.406;18.556;2023-06-10T02:55:01;6.70;;;2.23;;
20245;SDS011;10281;54.406;18.556;2023-06-10T02:57:28;9.60;;;2.30;;
20245;SDS011;10281;54.406;18.556;2023-06-10T02:59:55;8.47;;;1.90;;
20245;SDS011;10281;54.406;18.556;2023-06-10T03:02:21;7.97;;;2.50;;
20245;SDS011;10281;54.406;18.556;2023-06-10T03:04:50;4.87;;;2.10;;
20245;SDS011;10281;54.406;18.556;2023-06-10T03:07:18;6.03;;;2.03;;
20245;SDS011;10281;54.406;18.556;2023-06-10T03:09:46;7.80;;;2.30;;
20245;SDS011;10281;54.406;18.556;2023-06-10T03:12:13;5.40;;;2.10;;
20245;SDS011;10281;54.406;18.556;2023-06-10T03:14:40;6.67;;;2.00;;
20245;SDS011;10281;54.406;18.556;2023-06-10T03:17:08;4.10;;;2.00;;
20245;SDS011;10281;54.406;18.556;2023-06-10T03:19:35;5.30;;;2.00;;
20245;SDS011;10281;54.406;18.556;2023-06-10T03:22:08;6.10;;;2.50;;
20245;SDS011;10281;54.406;18.556;2023-06-10T03:24:37;5.77;;;2.00;;
20245;SDS011;10281;54.406;18.556;2023-06-10T03:27:07;7.23;;;1.90;;
20245;SDS011;10281;54.406;18.556;2023-06-10T03:29:36;3.47;;;2.07;;
20245;SDS011;10281;54.406;18.556;2023-06-10T03:32:03;5.33;;;1.77;;
20245;SDS011;10281;54.406;18.556;2023-06-10T03:34:31;7.30;;;2.30;;
20245;SDS011;10281;54.406;18.556;2023-06-10T03:36:57;7.20;;;2.27;;
20245;SDS011;10281;54.406;18.556;2023-06-10T03:39:25;3.87;;;2.03;;
20245;SDS011;10281;54.406;18.556;2023-06-10T03:41:54;2.73;;;1.80;;
20245;SDS011;10281;54.406;18.556;2023-06-10T03:44:23;4.10;;;1.50;;
20245;SDS011;10281;54.406;18.556;2023-06-10T03:46:51;2.80;;;1.90;;
20245;SDS011;10281;54.406;18.556;2023-06-10T03:49:18;7.80;;;2.20;;
20245;SDS011;10281;54.406;18.556;2023-06-10T03:51:45;6.87;;;2.10;;
20245;SDS011;10281;54.406;18.556;2023-06-10T03:54:12;7.00;;;2.10;;
20245;SDS011;10281;54.406;18.556;2023-06-10T03:56:38;4.50;;;1.97;;
20245;SDS011;10281;54.406;18.556;2023-06-10T03:59:05;4.07;;;1.73;;
20245;SDS011;10281;54.406;18.556;2023-06-10T04:01:32;3.47;;;1.80;;
20245;SDS011;10281;54.406;18.556;2023-06-10T04:04:00;5.63;;;2.40;;
20245;SDS011;10281;54.406;18.556;2023-06-10T04:06:27;7.03;;;2.03;;
20245;SDS011;10281;54.406;18.556;2023-06-10T04:08:55;6.37;;;2.10;;
20245;SDS011;10281;54.406;18.556;2023-06-10T04:11:23;3.83;;;2.17;;
20245;SDS011;10281;54.406;18.556;2023-06-10T04:13:50;3.40;;;2.00;;
20245;SDS011;10281;54.406;18.556;2023-06-10T04:16:17;4.60;;;2.03;;
20245;SDS011;10281;54.406;18.556;2023-06-10T04:18:44;5.93;;;2.17;;
20245;SDS011;10281;54.406;18.556;2023-06-10T04:21:11;4.30;;;2.27;;
20245;SDS011;10281;54.406;18.556;2023-06-10T04:23:37;5.13;;;2.07;;
20245;SDS011;10281;54.406;18.556;2023-06-10T04:26:04;4.27;;;2.50;;
20245;SDS011;10281;54.406;18.556;2023-06-10T04:28:31;3.90;;;2.10;;
20245;SDS011;10281;54.406;18.556;2023-06-10T04:30:58;5.33;;;2.03;;
20245;SDS011;10281;54.406;18.556;2023-06-10T04:33:24;2.50;;;2.20;;
20245;SDS011;10281;54.406;18.556;2023-06-10T04:35:52;4.17;;;2.23;;
20245;SDS011;10281;54.406;18.556;2023-06-10T04:38:18;2.63;;;2.10;;
20245;SDS011;10281;54.406;18.556;2023-06-10T04:40:45;7.47;;;2.40;;
20245;SDS011;10281;54.406;18.556;2023-06-10T04:43:12;5.90;;;2.23;;
20245;SDS011;10281;54.406;18.556;2023-06-10T04:45:38;5.33;;;2.77;;
20245;SDS011;10281;54.406;18.556;2023-06-10T04:48:05;4.23;;;2.40;;
20245;SDS011;10281;54.406;18.556;2023-06-10T04:50:33;10.73;;;2.20;;
20245;SDS011;10281;54.406;18.556;2023-06-10T04:52:59;3.53;;;2.10;;
20245;SDS011;10281;54.406;18.556;2023-06-10T04:55:26;3.20;;;2.10;;
20245;SDS011;10281;54.406;18.556;2023-06-10T04:57:52;6.17;;;2.30;;
20245;SDS011;10281;54.406;18.556;2023-06-10T05:00:19;4.20;;;2.03;;
20245;SDS011;10281;54.406;18.556;2023-06-10T05:02:46;5.47;;;2.10;;
20245;SDS011;10281;54.406;18.556;2023-06-10T05:05:16;4.00;;;2.13;;
20245;SDS011;10281;54.406;18.556;2023-06-10T05:07:43;6.00;;;2.40;;
20245;SDS011;10281;54.406;18.556;2023-06-10T05:10:10;4.87;;;2.60;;
20245;SDS011;10281;54.406;18.556;2023-06-10T05:12:38;5.23;;;2.10;;
20245;SDS011;10281;54.406;18.556;2023-06-10T05:15:06;4.70;;;2.40;;
20245;SDS011;10281;54.406;18.556;2023-06-10T05:17:33;6.03;;;2.37;;
20245;SDS011;10281;54.406;18.556;2023-06-10T05:20:01;2.67;;;2.00;;
20245;SDS011;10281;54.406;18.556;2023-06-10T05:22:29;3.73;;;2.10;;
20245;SDS011;10281;54.406;18.556;2023-06-10T05:24:55;4.13;;;2.27;;
20245;SDS011;10281;54.406;18.556;2023-06-10T05:27:22;5.87;;;2.47;;
20245;SDS011;10281;54.406;18.556;2023-06-10T05:29:50;4.20;;;2.53;;
20245;SDS011;10281;54.406;18.556;2023-06-10T05:32:17;3.47;;;2.20;;
20245;SDS011;10281;54.406;18.556;2023-06-10T05:34:44;5.10;;;2.33;;
20245;SDS011;10281;54.406;18.556;2023-06-10T05:37:10;4.00;;;2.13;;
20245;SDS011;10281;54.406;18.556;2023-06-10T05:39:38;3.00;;;1.93;;
20245;SDS011;10281;54.406;18.556;2023-06-10T05:44:38;6.77;;;2.57;;
20245;SDS011;10281;54.406;18.556;2023-06-10T05:47:04;4.37;;;2.00;;
20245;SDS011;10281;54.406;18.556;2023-06-10T05:49:31;3.13;;;1.80;;
20245;SDS011;10281;54.406;18.556;2023-06-10T05:51:58;6.57;;;2.60;;
20245;SDS011;10281;54.406;18.556;2023-06-10T05:54:25;3.47;;;1.90;;
20245;SDS011;10281;54.406;18.556;2023-06-10T05:56:52;5.40;;;1.80;;
20245;SDS011;10281;54.406;18.556;2023-06-10T05:59:18;3.40;;;2.07;;
20245;SDS011;10281;54.406;18.556;2023-06-10T06:01:45;2.77;;;2.03;;
20245;SDS011;10281;54.406;18.556;2023-06-10T06:04:12;5.63;;;2.07;;
20245;SDS011;10281;54.406;18.556;2023-06-10T06:06:38;2.67;;;1.90;;
20245;SDS011;10281;54.406;18.556;2023-06-10T06:09:06;4.40;;;1.77;;
20245;SDS011;10281;54.406;18.556;2023-06-10T06:11:33;4.47;;;1.67;;
20245;SDS011;10281;54.406;18.556;2023-06-10T06:14:01;4.07;;;2.10;;
20245;SDS011;10281;54.406;18.556;2023-06-10T06:16:27;5.83;;;1.60;;
20245;SDS011;10281;54.406;18.556;2023-06-10T06:18:54;7.77;;;2.20;;
20245;SDS011;10281;54.406;18.556;2023-06-10T06:21:21;4.67;;;2.57;;
20245;SDS011;10281;54.406;18.556;2023-06-10T06:23:47;4.33;;;1.87;;
20245;SDS011;10281;54.406;18.556;2023-06-10T06:26:14;6.53;;;2.07;;
20245;SDS011;10281;54.406;18.556;2023-06-10T06:28:41;5.03;;;2.20;;
20245;SDS011;10281;54.406;18.556;2023-06-10T06:31:07;5.20;;;1.67;;
20245;SDS011;10281;54.406;18.556;2023-06-10T06:33:34;3.63;;;2.00;;
20245;SDS011;10281;54.406;18.556;2023-06-10T06:36:00;3.77;;;1.80;;
20245;SDS011;10281;54.406;18.556;2023-06-10T06:38:27;3.43;;;1.83;;
20245;SDS011;10281;54.406;18.556;2023-06-10T06:40:53;5.17;;;1.90;;
20245;SDS011;10281;54.406;18.556;2023-06-10T06:43:20;4.03;;;1.83;;
20245;SDS011;10281;54.406;18.556;2023-06-10T06:45:47;6.13;;;1.77;;
20245;SDS011;10281;54.406;18.556;2023-06-10T06:48:13;5.63;;;1.90;;
20245;SDS011;10281;54.406;18.556;2023-06-10T06:50:40;4.57;;;2.13;;
20245;SDS011;10281;54.406;18.556;2023-06-10T06:53:07;3.97;;;2.03;;
20245;SDS011;10281;54.406;18.556;2023-06-10T06:55:34;6.67;;;1.67;;
20245;SDS011;10281;54.406;18.556;2023-06-10T06:58:00;3.70;;;1.70;;
20245;SDS011;10281;54.406;18.556;2023-06-10T07:00:29;4.63;;;1.93;;
20245;SDS011;10281;54.406;18.556;2023-06-10T07:02:56;4.93;;;1.80;;
20245;SDS011;10281;54.406;18.556;2023-06-10T07:05:23;3.83;;;1.50;;
20245;SDS011;10281;54.406;18.556;2023-06-10T07:07:53;7.23;;;1.77;;
20245;SDS011;10281;54.406;18.556;2023-06-10T07:10:24;4.23;;;1.70;;
20245;SDS011;10281;54.406;18.556;2023-06-10T07:12:51;3.23;;;1.53;;
20245;SDS011;10281;54.406;18.556;2023-06-10T07:15:19;3.53;;;1.40;;
20245;SDS011;10281;54.406;18.556;2023-06-10T07:17:45;4.33;;;1.63;;
20245;SDS011;10281;54.406;18.556;2023-06-10T07:20:12;5.13;;;1.77;;
20245;SDS011;10281;54.406;18.556;2023-06-10T07:22:41;2.43;;;1.40;;
20245;SDS011;10281;54.406;18.556;2023-06-10T07:25:08;2.73;;;1.80;;
20245;SDS011;10281;54.406;18.556;2023-06-10T07:27:35;2.77;;;1.70;;
20245;SDS011;10281;54.406;18.556;2023-06-10T07:30:03;3.23;;;1.30;;
20245;SDS011;10281;54.406;18.556;2023-06-10T07:32:32;4.00;;;1.40;;
20245;SDS011;10281;54.406;18.556;2023-06-10T07:34:59;5.10;;;1.67;;
20245;SDS011;10281;54.406;18.556;2023-06-10T07:37:25;5.37;;;1.53;;
20245;SDS011;10281;54.406;18.556;2023-06-10T07:39:52;2.90;;;1.60;;
20245;SDS011;10281;54.406;18.556;2023-06-10T07:42:19;2.43;;;1.30;;
20245;SDS011;10281;54.406;18.556;2023-06-10T07:44:45;3.53;;;1.57;;
20245;SDS011;10281;54.406;18.556;2023-06-10T07:47:13;2.90;;;1.40;;
20245;SDS011;10281;54.406;18.556;2023-06-10T07:49:39;2.60;;;1.40;;
20245;SDS011;10281;54.406;18.556;2023-06-10T07:52:07;2.30;;;1.30;;
20245;SDS011;10281;54.406;18.556;2023-06-10T07:54:34;2.83;;;1.43;;
20245;SDS011;10281;54.406;18.556;2023-06-10T07:57:01;4.40;;;1.50;;
20245;SDS011;10281;54.406;18.556;2023-06-10T07:59:27;3.63;;;1.47;;
20245;SDS011;10281;54.406;18.556;2023-06-10T08:01:54;7.30;;;2.70;;
20245;SDS011;10281;54.406;18.556;2023-06-10T08:04:21;3.50;;;1.60;;
20245;SDS011;10281;54.406;18.556;2023-06-10T08:06:48;6.93;;;2.57;;
20245;SDS011;10281;54.406;18.556;2023-06-10T08:09:14;6.43;;;2.80;;
20245;SDS011;10281;54.406;18.556;2023-06-10T08:11:44;4.10;;;1.73;;
20245;SDS011;10281;54.406;18.556;2023-06-10T08:14:13;4.87;;;2.10;;
20245;SDS011;10281;54.406;18.556;2023-06-10T08:16:39;5.30;;;1.93;;
20245;SDS011;10281;54.406;18.556;2023-06-10T08:19:06;8.07;;;2.30;;
20245;SDS011;10281;54.406;18.556;2023-06-10T08:21:35;3.10;;;1.33;;
20245;SDS011;10281;54.406;18.556;2023-06-10T08:24:05;6.03;;;2.30;;
20245;SDS011;10281;54.406;18.556;2023-06-10T08:26:32;7.20;;;2.37;;
20245;SDS011;10281;54.406;18.556;2023-06-10T08:28:59;4.93;;;1.70;;
20245;SDS011;10281;54.406;18.556;2023-06-10T08:31:26;5.40;;;1.53;;
20245;SDS011;10281;54.406;18.556;2023-06-10T08:33:52;3.03;;;1.30;;
20245;SDS011;10281;54.406;18.556;2023-06-10T08:36:19;4.67;;;1.60;;
20245;SDS011;10281;54.406;18.556;2023-06-10T08:38:45;4.13;;;1.40;;
20245;SDS011;10281;54.406;18.556;2023-06-10T08:41:12;3.43;;;1.50;;
20245;SDS011;10281;54.406;18.556;2023-06-10T08:43:44;3.47;;;1.73;;
20245;SDS011;10281;54.406;18.556;2023-06-10T08:46:14;7.53;;;1.77;;
20245;SDS011;10281;54.406;18.556;2023-06-10T08:48:42;4.60;;;1.70;;
20245;SDS011;10281;54.406;18.556;2023-06-10T08:51:11;5.47;;;1.77;;
20245;SDS011;10281;54.406;18.556;2023-06-10T08:53:38;5.53;;;2.03;;
20245;SDS011;10281;54.406;18.556;2023-06-10T08:56:08;2.97;;;1.40;;
20245;SDS011;10281;54.406;18.556;2023-06-10T08:58:36;4.60;;;1.67;;
20245;SDS011;10281;54.406;18.556;2023-06-10T09:01:05;5.77;;;1.87;;
20245;SDS011;10281;54.406;18.556;2023-06-10T09:03:32;2.37;;;1.30;;
20245;SDS011;10281;54.406;18.556;2023-06-10T09:06:00;5.97;;;1.30;;
20245;SDS011;10281;54.406;18.556;2023-06-10T09:08:30;4.03;;;1.30;;
20245;SDS011;10281;54.406;18.556;2023-06-10T09:10:57;3.73;;;1.50;;
20245;SDS011;10281;54.406;18.556;2023-06-10T09:13:24;5.87;;;1.40;;
20245;SDS011;10281;54.406;18.556;2023-06-10T09:15:50;6.70;;;1.97;;
20245;SDS011;10281;54.406;18.556;2023-06-10T09:18:17;5.17;;;1.87;;
20245;SDS011;10281;54.406;18.556;2023-06-10T09:20:44;4.67;;;1.60;;
20245;SDS011;10281;54.406;18.556;2023-06-10T09:23:11;4.17;;;1.70;;
20245;SDS011;10281;54.406;18.556;2023-06-10T09:25:39;6.33;;;1.57;;
20245;SDS011;10281;54.406;18.556;2023-06-10T09:28:12;7.00;;;1.60;;
20245;SDS011;10281;54.406;18.556;2023-06-10T09:30:40;3.53;;;1.67;;
20245;SDS011;10281;54.406;18.556;2023-06-10T09:33:10;3.87;;;1.70;;
20245;SDS011;10281;54.406;18.556;2023-06-10T09:35:48;4.80;;;1.63;;
20245;SDS011;10281;54.406;18.556;2023-06-10T09:38:19;3.97;;;1.80;;
20245;SDS011;10281;54.406;18.556;2023-06-10T09:40:49;4.77;;;1.87;;
20245;SDS011;10281;54.406;18.556;2023-06-10T09:43:17;4.13;;;1.40;;
20245;SDS011;10281;54.406;18.556;2023-06-10T09:45:44;7.27;;;1.90;;
20245;SDS011;10281;54.406;18.556;2023-06-10T09:48:14;4.70;;;1.70;;
20245;SDS011;10281;54.406;18.556;2023-06-10T09:50:42;4.30;;;1.33;;
20245;SDS011;10281;54.406;18.556;2023-06-10T09:53:10;4.87;;;1.50;;
20245;SDS011;10281;54.406;18.556;2023-06-10T09:55:38;3.57;;;1.53;;
20245;SDS011;10281;54.406;18.556;2023-06-10T09:58:07;5.77;;;1.40;;
20245;SDS011;10281;54.406;18.556;2023-06-10T10:00:34;3.87;;;1.70;;
20245;SDS011;10281;54.406;18.556;2023-06-10T10:03:00;3.27;;;1.63;;
20245;SDS011;10281;54.406;18.556;2023-06-10T10:05:27;3.43;;;1.70;;
20245;SDS011;10281;54.406;18.556;2023-06-10T10:07:55;4.30;;;1.20;;
20245;SDS011;10281;54.406;18.556;2023-06-10T10:10:22;7.93;;;1.80;;
20245;SDS011;10281;54.406;18.556;2023-06-10T10:12:56;4.07;;;1.33;;
20245;SDS011;10281;54.406;18.556;2023-06-10T10:15:23;2.53;;;1.57;;
20245;SDS011;10281;54.406;18.556;2023-06-10T10:17:55;5.37;;;1.70;;
20245;SDS011;10281;54.406;18.556;2023-06-10T10:20:26;5.13;;;1.60;;
20245;SDS011;10281;54.406;18.556;2023-06-10T10:22:56;3.60;;;1.63;;
20245;SDS011;10281;54.406;18.556;2023-06-10T10:25:27;4.27;;;1.50;;
20245;SDS011;10281;54.406;18.556;2023-06-10T10:27:58;4.83;;;1.77;;
20245;SDS011;10281;54.406;18.556;2023-06-10T10:30:28;3.43;;;1.57;;
20245;SDS011;10281;54.406;18.556;2023-06-10T10:33:04;2.87;;;1.57;;
20245;SDS011;10281;54.406;18.556;2023-06-10T10:35:34;7.80;;;1.67;;
20245;SDS011;10281;54.406;18.556;2023-06-10T10:38:02;2.73;;;1.60;;
20245;SDS011;10281;54.406;18.556;2023-06-10T10:40:29;3.43;;;1.70;;
20245;SDS011;10281;54.406;18.556;2023-06-10T10:42:58;4.30;;;1.70;;
20245;SDS011;10281;54.406;18.556;2023-06-10T10:45:27;2.87;;;1.50;;
20245;SDS011;10281;54.406;18.556;2023-06-10T10:47:55;6.40;;;1.93;;
20245;SDS011;10281;54.406;18.556;2023-06-10T10:50:22;5.10;;;1.63;;
20245;SDS011;10281;54.406;18.556;2023-06-10T10:52:54;4.13;;;1.50;;
20245;SDS011;10281;54.406;18.556;2023-06-10T10:55:26;2.47;;;1.70;;
20245;SDS011;10281;54.406;18.556;2023-06-10T10:57:55;4.50;;;1.77;;
20245;SDS011;10281;54.406;18.556;2023-06-10T11:00:27;3.30;;;1.57;;
20245;SDS011;10281;54.406;18.556;2023-06-10T11:02:58;3.80;;;1.70;;
20245;SDS011;10281;54.406;18.556;2023-06-10T11:08:05;5.67;;;1.70;;
20245;SDS011;10281;54.406;18.556;2023-06-10T11:10:34;5.80;;;1.90;;
20245;SDS011;10281;54.406;18.556;2023-06-10T11:13:06;4.80;;;1.77;;
20245;SDS011;10281;54.406;18.556;2023-06-10T11:15:39;4.50;;;1.70;;
20245;SDS011;10281;54.406;18.556;2023-06-10T11:18:14;5.83;;;1.83;;
20245;SDS011;10281;54.406;18.556;2023-06-10T11:21:03;4.70;;;1.70;;
20245;SDS011;10281;54.406;18.556;2023-06-10T11:23:34;4.83;;;1.50;;
20245;SDS011;10281;54.406;18.556;2023-06-10T11:26:16;7.77;;;2.00;;
20245;SDS011;10281;54.406;18.556;2023-06-10T11:29:03;4.00;;;1.47;;
20245;SDS011;10281;54.406;18.556;2023-06-10T11:31:34;4.47;;;1.67;;
20245;SDS011;10281;54.406;18.556;2023-06-10T11:34:13;4.43;;;1.80;;
20245;SDS011;10281;54.406;18.556;2023-06-10T11:36:40;3.17;;;1.70;;
20245;SDS011;10281;54.406;18.556;2023-06-10T11:39:10;3.97;;;1.40;;
20245;SDS011;10281;54.406;18.556;2023-06-10T11:41:37;4.40;;;1.90;;
20245;SDS011;10281;54.406;18.556;2023-06-10T11:44:08;5.30;;;1.60;;
20245;SDS011;10281;54.406;18.556;2023-06-10T11:46:36;4.73;;;1.63;;
20245;SDS011;10281;54.406;18.556;2023-06-10T11:49:03;5.30;;;1.63;;
20245;SDS011;10281;54.406;18.556;2023-06-10T11:51:33;3.60;;;1.83;;
20245;SDS011;10281;54.406;18.556;2023-06-10T11:54:01;5.33;;;1.87;;
20245;SDS011;10281;54.406;18.556;2023-06-10T11:56:30;5.20;;;1.90;;
20245;SDS011;10281;54.406;18.556;2023-06-10T11:58:59;6.83;;;2.90;;
20245;SDS011;10281;54.406;18.556;2023-06-10T12:01:29;5.00;;;2.57;;
20245;SDS011;10281;54.406;18.556;2023-06-10T12:03:57;4.67;;;1.83;;
20245;SDS011;10281;54.406;18.556;2023-06-10T12:06:37;2.73;;;1.53;;
20245;SDS011;10281;54.406;18.556;2023-06-10T12:09:19;4.23;;;1.70;;
20245;SDS011;10281;54.406;18.556;2023-06-10T12:11:51;3.80;;;1.70;;
20245;SDS011;10281;54.406;18.556;2023-06-10T12:17:07;7.80;;;2.00;;
20245;SDS011;10281;54.406;18.556;2023-06-10T12:19:38;2.20;;;1.50;;
20245;SDS011;10281;54.406;18.556;2023-06-10T12:22:05;3.57;;;1.70;;
20245;SDS011;10281;54.406;18.556;2023-06-10T12:24:31;2.50;;;1.90;;
20245;SDS011;10281;54.406;18.556;2023-06-10T12:26:58;3.90;;;1.80;;
20245;SDS011;10281;54.406;18.556;2023-06-10T12:29:25;7.23;;;1.50;;
20245;SDS011;10281;54.406;18.556;2023-06-10T12:31:52;4.03;;;1.83;;
20245;SDS011;10281;54.406;18.556;2023-06-10T12:34:27;5.47;;;1.70;;
20245;SDS011;10281;54.406;18.556;2023-06-10T12:36:56;4.63;;;1.60;;
20245;SDS011;10281;54.406;18.556;2023-06-10T12:39:23;5.67;;;1.73;;
20245;SDS011;10281;54.406;18.556;2023-06-10T12:41:51;2.90;;;1.50;;
20245;SDS011;10281;54.406;18.556;2023-06-10T12:44:18;4.23;;;1.83;;
20245;SDS011;10281;54.406;18.556;2023-06-10T12:46:53;3.13;;;1.50;;
20245;SDS011;10281;54.406;18.556;2023-06-10T12:49:19;4.77;;;1.80;;
20245;SDS011;10281;54.406;18.556;2023-06-10T12:51:46;2.60;;;1.47;;
20245;SDS011;10281;54.406;18.556;2023-06-10T12:54:13;4.97;;;1.70;;
20245;SDS011;10281;54.406;18.556;2023-06-10T12:56:40;3.43;;;1.63;;
20245;SDS011;10281;54.406;18.556;2023-06-10T12:59:06;3.07;;;1.50;;
20245;SDS011;10281;54.406;18.556;2023-06-10T13:01:33;3.73;;;1.60;;
20245;SDS011;10281;54.406;18.556;2023-06-10T13:04:00;4.63;;;1.50;;
20245;SDS011;10281;54.406;18.556;2023-06-10T13:06:26;3.30;;;1.80;;
20245;SDS011;10281;54.406;18.556;2023-06-10T13:08:54;4.97;;;1.70;;
20245;SDS011;10281;54.406;18.556;2023-06-10T13:11:21;6.67;;;2.07;;
20245;SDS011;10281;54.406;18.556;2023-06-10T13:13:48;2.83;;;1.77;;
20245;SDS011;10281;54.406;18.556;2023-06-10T13:16:15;4.47;;;1.70;;
20245;SDS011;10281;54.406;18.556;2023-06-10T13:18:41;5.43;;;1.60;;
20245;SDS011;10281;54.406;18.556;2023-06-10T13:21:08;3.73;;;1.83;;
20245;SDS011;10281;54.406;18.556;2023-06-10T13:23:35;2.83;;;1.70;;
20245;SDS011;10281;54.406;18.556;2023-06-10T13:26:02;3.40;;;1.37;;
20245;SDS011;10281;54.406;18.556;2023-06-10T13:28:28;3.97;;;1.70;;
20245;SDS011;10281;54.406;18.556;2023-06-10T13:30:56;4.53;;;1.50;;
20245;SDS011;10281;54.406;18.556;2023-06-10T13:33:23;4.30;;;1.50;;
20245;SDS011;10281;54.406;18.556;2023-06-10T13:35:49;4.23;;;1.63;;
20245;SDS011;10281;54.406;18.556;2023-06-10T13:38:16;5.67;;;1.53;;
20245;SDS011;10281;54.406;18.556;2023-06-10T13:40:42;3.57;;;1.70;;
20245;SDS011;10281;54.406;18.556;2023-06-10T13:43:09;3.77;;;1.80;;
20245;SDS011;10281;54.406;18.556;2023-06-10T13:45:37;4.60;;;1.77;;
20245;SDS011;10281;54.406;18.556;2023-06-10T13:48:03;3.00;;;1.60;;
20245;SDS011;10281;54.406;18.556;2023-06-10T13:50:31;3.90;;;2.00;;
20245;SDS011;10281;54.406;18.556;2023-06-10T13:52:58;2.97;;;1.70;;
20245;SDS011;10281;54.406;18.556;2023-06-10T13:55:24;11.70;;;1.80;;
20245;SDS011;10281;54.406;18.556;2023-06-10T13:57:51;7.63;;;1.90;;
20245;SDS011;10281;54.406;18.556;2023-06-10T14:00:18;5.17;;;1.83;;
20245;SDS011;10281;54.406;18.556;2023-06-10T14:02:45;5.70;;;1.80;;
20245;SDS011;10281;54.406;18.556;2023-06-10T14:05:12;4.40;;;1.80;;
20245;SDS011;10281;54.406;18.556;2023-06-10T14:07:38;3.37;;;1.57;;
20245;SDS011;10281;54.406;18.556;2023-06-10T14:10:06;3.87;;;2.17;;
20245;SDS011;10281;54.406;18.556;2023-06-10T14:12:34;5.20;;;2.17;;
20245;SDS011;10281;54.406;18.556;2023-06-10T14:15:01;3.93;;;1.73;;
20245;SDS011;10281;54.406;18.556;2023-06-10T14:17:28;2.97;;;1.60;;
20245;SDS011;10281;54.406;18.556;2023-06-10T14:19:55;5.20;;;1.93;;
20245;SDS011;10281;54.406;18.556;2023-06-10T14:22:21;4.87;;;1.83;;
20245;SDS011;10281;54.406;18.556;2023-06-10T14:24:48;4.40;;;1.50;;
20245;SDS011;10281;54.406;18.556;2023-06-10T14:27:14;5.17;;;1.80;;
20245;SDS011;10281;54.406;18.556;2023-06-10T14:29:41;2.70;;;1.67;;
20245;SDS011;10281;54.406;18.556;2023-06-10T14:32:08;2.83;;;1.50;;
20245;SDS011;10281;54.406;18.556;2023-06-10T14:34:35;4.80;;;1.67;;
20245;SDS011;10281;54.406;18.556;2023-06-10T14:37:02;3.67;;;1.80;;
20245;SDS011;10281;54.406;18.556;2023-06-10T14:39:29;4.60;;;1.70;;
20245;SDS011;10281;54.406;18.556;2023-06-10T14:41:56;3.83;;;1.40;;
20245;SDS011;10281;54.406;18.556;2023-06-10T14:44:23;3.23;;;1.77;;